sensor_id;sensor_type;location;lat;lon;timestamp;P1;durP1;ratioP1;P2;durP2;ratioP2
34645;SDS011;20857;47.808;12.482;2023-07-13T00:01:47;1999.90;;;999.90;;
34645;SDS011;20857;47.808;12.482;2023-07-13T00:04:15;1999.90;;;999.90;;
34645;SDS011;20857;47.808;12.482;2023-07-13T00:06:42;1999.90;;;999.90;;
34645;SDS011;20857;47.808;12.482;2023-07-13T00:09:10;1999.90;;;999.90;;
34645;SDS011;20857;47.808;12.482;2023-07-13T00:11:40;1999.90;;;999.90;;
34645;SDS011;20857;47.808;12.482;2023-07-13T00:14:06;1999.90;;;999.90;;
34645;SDS011;20857;47.808;12.482;2023-07-13T00:16:34;1999.90;;;999.90;;
34645;SDS011;20857;47.808;12.482;2023-07-13T00:19:01;1999.90;;;999.90;;
34645;SDS011;20857;47.808;12.482;2023-07-13T00:21:26;1999.90;;;999.90;;
34645;SDS011;20857;47.808;12.482;2023-07-13T00:23:52;1999.90;;;999.90;;
34645;SDS011;20857;47.808;12.482;2023-07-13T00:26:17;1999.90;;;999.90;;
34645;SDS011;20857;47.808;12.482;2023-07-13T00:28:43;1999.90;;;999.90;;
34645;SDS011;20857;47.808;12.482;2023-07-13T00:31:09;1999.90;;;999.90;;
34645;SDS011;20857;47.808;12.482;2023-07-13T00:33:36;1999.90;;;999.90;;
34645;SDS011;20857;47.808;12.482;2023-07-13T00:36:02;1999.90;;;999.90;;
34645;SDS011;20857;47.808;12.482;2023-07-13T00:38:28;1999.90;;;999.90;;
34645;SDS011;20857;47.808;12.482;2023-07-13T00:40:54;1999.90;;;999.90;;
34645;SDS011;20857;47.808;12.482;2023-07-13T00:43:21;1999.90;;;999.90;;
34645;SDS011;20857;47.808;12.482;2023-07-13T00:48:14;1999.90;;;999.90;;
34645;SDS011;20857;47.808;12.482;2023-07-13T00:50:51;1999.90;;;999.90;;
34645;SDS011;20857;47.808;12.482;2023-07-13T00:53:19;1999.90;;;999.90;;
34645;SDS011;20857;47.808;12.482;2023-07-13T00:55:45;1999.90;;;999.90;;
34645;SDS011;20857;47.808;12.482;2023-07-13T00:58:13;1999.90;;;999.90;;
34645;SDS011;20857;47.808;12.482;2023-07-13T01:00:39;1999.90;;;999.90;;
34645;SDS011;20857;47.808;12.482;2023-07-13T01:03:05;1999.90;;;999.90;;
34645;SDS011;20857;47.808;12.482;2023-07-13T01:05:32;1999.90;;;999.90;;
34645;SDS011;20857;47.808;12.482;2023-07-13T01:07:59;1999.90;;;999.90;;
34645;SDS011;20857;47.808;12.482;2023-07-13T01:10:26;1999.90;;;999.90;;
34645;SDS011;20857;47.808;12.482;2023-07-13T01:12:52;1999.90;;;999.90;;
34645;SDS011;20857;47.808;12.482;2023-07-13T01:18:07;1999.90;;;999.90;;
34645;SDS011;20857;47.808;12.482;2023-07-13T01:20:36;1999.90;;;999.90;;
34645;SDS011;20857;47.808;12.482;2023-07-13T01:23:09;1999.90;;;999.90;;
34645;SDS011;20857;47.808;12.482;2023-07-13T01:25:36;1999.90;;;999.90;;
34645;SDS011;20857;47.808;12.482;2023-07-13T01:28:03;1999.90;;;999.90;;
34645;SDS011;20857;47.808;12.482;2023-07-13T01:30:30;1999.90;;;999.90;;
34645;SDS011;20857;47.808;12.482;2023-07-13T01:32:56;1999.90;;;999.90;;
34645;SDS011;20857;47.808;12.482;2023-07-13T01:35:23;1999.90;;;999.90;;
34645;SDS011;20857;47.808;12.482;2023-07-13T01:37:50;1999.90;;;999.90;;
34645;SDS011;20857;47.808;12.482;2023-07-13T01:40:16;1999.90;;;999.90;;
34645;SDS011;20857;47.808;12.482;2023-07-13T01:42:41;1999.90;;;999.90;;
34645;SDS011;20857;47.808;12.482;2023-07-13T01:45:07;1999.90;;;999.90;;
34645;SDS011;20857;47.808;12.482;2023-07-13T01:47:33;1999.90;;;999.90;;
34645;SDS011;20857;47.808;12.482;2023-07-13T01:49:58;1999.90;;;999.90;;
34645;SDS011;20857;47.808;12.482;2023-07-13T01:52:24;1999.90;;;999.90;;
34645;SDS011;20857;47.808;12.482;2023-07-13T01:54:50;1999.90;;;999.90;;
34645;SDS011;20857;47.808;12.482;2023-07-13T01:57:15;1999.90;;;999.90;;
34645;SDS011;20857;47.808;12.482;2023-07-13T01:59:41;1999.90;;;999.90;;
34645;SDS011;20857;47.808;12.482;2023-07-13T02:02:06;1999.90;;;999.90;;
34645;SDS011;20857;47.808;12.482;2023-07-13T02:04:32;1999.90;;;999.90;;
34645;SDS011;20857;47.808;12.482;2023-07-13T02:06:58;1999.90;;;999.90;;
34645;SDS011;20857;47.808;12.482;2023-07-13T02:09:24;1999.90;;;999.90;;
34645;SDS011;20857;47.808;12.482;2023-07-13T02:11:49;1999.90;;;999.90;;
34645;SDS011;20857;47.808;12.482;2023-07-13T02:14:15;1999.90;;;999.90;;
34645;SDS011;20857;47.808;12.482;2023-07-13T02:16:41;1999.90;;;999.90;;
34645;SDS011;20857;47.808;12.482;2023-07-13T02:19:07;1999.90;;;999.90;;
34645;SDS011;20857;47.808;12.482;2023-07-13T02:21:33;1999.90;;;999.90;;
34645;SDS011;20857;47.808;12.482;2023-07-13T02:23:58;1999.90;;;999.90;;
34645;SDS011;20857;47.808;12.482;2023-07-13T02:26:25;1999.90;;;999.90;;
34645;SDS011;20857;47.808;12.482;2023-07-13T02:28:50;1999.90;;;999.90;;
34645;SDS011;20857;47.808;12.482;2023-07-13T02:31:16;1999.90;;;999.90;;
34645;SDS011;20857;47.808;12.482;2023-07-13T02:33:42;1999.90;;;999.90;;
34645;SDS011;20857;47.808;12.482;2023-07-13T02:36:08;1999.90;;;999.90;;
34645;SDS011;20857;47.808;12.482;2023-07-13T02:38:34;1999.90;;;999.90;;
34645;SDS011;20857;47.808;12.482;2023-07-13T02:41:01;1999.90;;;999.90;;
34645;SDS011;20857;47.808;12.482;2023-07-13T02:43:27;1999.90;;;999.90;;
34645;SDS011;20857;47.808;12.482;2023-07-13T02:45:53;1999.90;;;999.90;;
34645;SDS011;20857;47.808;12.482;2023-07-13T02:48:19;1999.90;;;999.90;;
34645;SDS011;20857;47.808;12.482;2023-07-13T02:50:44;1999.90;;;999.90;;
34645;SDS011;20857;47.808;12.482;2023-07-13T02:53:10;1999.90;;;999.90;;
34645;SDS011;20857;47.808;12.482;2023-07-13T02:55:36;1999.90;;;999.90;;
34645;SDS011;20857;47.808;12.482;2023-07-13T02:58:02;1999.90;;;999.90;;
34645;SDS011;20857;47.808;12.482;2023-07-13T03:00:27;1999.90;;;999.90;;
34645;SDS011;20857;47.808;12.482;2023-07-13T03:02:53;1999.90;;;999.90;;
34645;SDS011;20857;47.808;12.482;2023-07-13T03:05:22;1999.90;;;999.90;;
34645;SDS011;20857;47.808;12.482;2023-07-13T03:07:48;1999.90;;;999.90;;
34645;SDS011;20857;47.808;12.482;2023-07-13T03:10:14;1999.90;;;999.90;;
34645;SDS011;20857;47.808;12.482;2023-07-13T03:12:39;1999.90;;;999.90;;
34645;SDS011;20857;47.808;12.482;2023-07-13T03:15:05;1999.90;;;999.90;;
34645;SDS011;20857;47.808;12.482;2023-07-13T03:17:31;1999.90;;;999.90;;
34645;SDS011;20857;47.808;12.482;2023-07-13T03:19:57;1999.90;;;999.90;;
34645;SDS011;20857;47.808;12.482;2023-07-13T03:22:22;1999.90;;;999.90;;
34645;SDS011;20857;47.808;12.482;2023-07-13T03:24:48;1999.90;;;999.90;;
34645;SDS011;20857;47.808;12.482;2023-07-13T03:27:14;1999.90;;;999.90;;
34645;SDS011;20857;47.808;12.482;2023-07-13T03:29:42;1999.90;;;999.90;;
34645;SDS011;20857;47.808;12.482;2023-07-13T03:32:07;1999.90;;;999.90;;
34645;SDS011;20857;47.808;12.482;2023-07-13T03:34:33;1999.90;;;999.90;;
34645;SDS011;20857;47.808;12.482;2023-07-13T03:36:59;1999.90;;;999.90;;
34645;SDS011;20857;47.808;12.482;2023-07-13T03:39:24;1999.90;;;999.90;;
34645;SDS011;20857;47.808;12.482;2023-07-13T03:41:50;1999.90;;;999.90;;
34645;SDS011;20857;47.808;12.482;2023-07-13T03:44:16;1999.90;;;999.90;;
34645;SDS011;20857;47.808;12.482;2023-07-13T03:46:42;1999.90;;;999.90;;
34645;SDS011;20857;47.808;12.482;2023-07-13T03:49:08;1999.90;;;999.90;;
34645;SDS011;20857;47.808;12.482;2023-07-13T03:51:35;1999.90;;;999.90;;
34645;SDS011;20857;47.808;12.482;2023-07-13T03:54:00;1999.90;;;999.90;;
34645;SDS011;20857;47.808;12.482;2023-07-13T03:56:27;1999.90;;;999.90;;
34645;SDS011;20857;47.808;12.482;2023-07-13T03:58:53;1999.90;;;999.90;;
34645;SDS011;20857;47.808;12.482;2023-07-13T04:01:20;1999.90;;;999.90;;
34645;SDS011;20857;47.808;12.482;2023-07-13T04:03:46;1999.90;;;999.90;;
34645;SDS011;20857;47.808;12.482;2023-07-13T04:06:14;1999.90;;;999.90;;
34645;SDS011;20857;47.808;12.482;2023-07-13T04:08:47;1999.90;;;999.90;;
34645;SDS011;20857;47.808;12.482;2023-07-13T04:11:15;1999.90;;;999.90;;
34645;SDS011;20857;47.808;12.482;2023-07-13T04:13:41;1999.90;;;999.90;;
34645;SDS011;20857;47.808;12.482;2023-07-13T04:16:06;1999.90;;;999.90;;
34645;SDS011;20857;47.808;12.482;2023-07-13T04:18:32;1999.90;;;999.90;;
34645;SDS011;20857;47.808;12.482;2023-07-13T04:20:58;1999.90;;;999.90;;
34645;SDS011;20857;47.808;12.482;2023-07-13T04:23:23;1999.90;;;999.90;;
34645;SDS011;20857;47.808;12.482;2023-07-13T04:25:51;1999.90;;;999.90;;
34645;SDS011;20857;47.808;12.482;2023-07-13T04:28:18;1999.90;;;999.90;;
34645;SDS011;20857;47.808;12.482;2023-07-13T04:30:48;1999.90;;;999.90;;
34645;SDS011;20857;47.808;12.482;2023-07-13T04:33:14;1999.90;;;999.90;;
34645;SDS011;20857;47.808;12.482;2023-07-13T04:35:41;1999.90;;;999.90;;
34645;SDS011;20857;47.808;12.482;2023-07-13T04:38:08;1999.90;;;999.90;;
34645;SDS011;20857;47.808;12.482;2023-07-13T04:40:36;1999.90;;;999.90;;
34645;SDS011;20857;47.808;12.482;2023-07-13T04:43:01;1999.90;;;999.90;;
34645;SDS011;20857;47.808;12.482;2023-07-13T04:45:27;1999.90;;;999.90;;
34645;SDS011;20857;47.808;12.482;2023-07-13T04:47:53;1999.90;;;999.90;;
34645;SDS011;20857;47.808;12.482;2023-07-13T04:50:18;1999.90;;;999.90;;
34645;SDS011;20857;47.808;12.482;2023-07-13T04:52:48;1999.90;;;999.90;;
34645;SDS011;20857;47.808;12.482;2023-07-13T04:55:17;1999.90;;;999.90;;
34645;SDS011;20857;47.808;12.482;2023-07-13T04:57:44;1999.90;;;999.90;;
34645;SDS011;20857;47.808;12.482;2023-07-13T05:00:10;1999.90;;;999.90;;
34645;SDS011;20857;47.808;12.482;2023-07-13T05:02:37;1999.90;;;999.90;;
34645;SDS011;20857;47.808;12.482;2023-07-13T05:05:04;1999.90;;;999.90;;
34645;SDS011;20857;47.808;12.482;2023-07-13T05:07:30;1999.90;;;999.90;;
34645;SDS011;20857;47.808;12.482;2023-07-13T05:09:58;1999.90;;;999.90;;
34645;SDS011;20857;47.808;12.482;2023-07-13T05:12:24;1999.90;;;999.90;;
34645;SDS011;20857;47.808;12.482;2023-07-13T05:14:50;1999.90;;;999.90;;
34645;SDS011;20857;47.808;12.482;2023-07-13T05:17:16;1999.90;;;999.90;;
34645;SDS011;20857;47.808;12.482;2023-07-13T05:19:41;1999.90;;;999.90;;
34645;SDS011;20857;47.808;12.482;2023-07-13T05:22:07;1999.90;;;999.90;;
34645;SDS011;20857;47.808;12.482;2023-07-13T05:24:33;1999.90;;;999.90;;
34645;SDS011;20857;47.808;12.482;2023-07-13T05:26:58;1999.90;;;999.90;;
34645;SDS011;20857;47.808;12.482;2023-07-13T05:29:24;1999.90;;;999.90;;
34645;SDS011;20857;47.808;12.482;2023-07-13T05:31:50;1999.90;;;999.90;;
34645;SDS011;20857;47.808;12.482;2023-07-13T05:34:16;1999.90;;;999.90;;
34645;SDS011;20857;47.808;12.482;2023-07-13T05:36:42;1999.90;;;999.90;;
34645;SDS011;20857;47.808;12.482;2023-07-13T05:39:07;1999.90;;;999.90;;
34645;SDS011;20857;47.808;12.482;2023-07-13T05:41:33;1999.90;;;999.90;;
34645;SDS011;20857;47.808;12.482;2023-07-13T05:44:00;1999.90;;;999.90;;
34645;SDS011;20857;47.808;12.482;2023-07-13T05:46:26;1999.90;;;999.90;;
34645;SDS011;20857;47.808;12.482;2023-07-13T05:48:51;1999.90;;;999.90;;
34645;SDS011;20857;47.808;12.482;2023-07-13T05:51:17;1999.90;;;999.90;;
34645;SDS011;20857;47.808;12.482;2023-07-13T05:53:42;1999.90;;;999.90;;
34645;SDS011;20857;47.808;12.482;2023-07-13T05:56:08;1999.90;;;999.90;;
34645;SDS011;20857;47.808;12.482;2023-07-13T05:58:34;1999.90;;;999.90;;
34645;SDS011;20857;47.808;12.482;2023-07-13T06:01:04;1999.90;;;999.90;;
34645;SDS011;20857;47.808;12.482;2023-07-13T06:03:32;1999.90;;;999.90;;
34645;SDS011;20857;47.808;12.482;2023-07-13T06:05:58;1999.90;;;999.90;;
34645;SDS011;20857;47.808;12.482;2023-07-13T06:08:25;1999.90;;;999.90;;
34645;SDS011;20857;47.808;12.482;2023-07-13T06:10:51;1999.90;;;999.90;;
34645;SDS011;20857;47.808;12.482;2023-07-13T06:13:16;1999.90;;;999.90;;
34645;SDS011;20857;47.808;12.482;2023-07-13T06:15:47;1999.90;;;999.90;;
34645;SDS011;20857;47.808;12.482;2023-07-13T06:18:15;1999.90;;;999.90;;
34645;SDS011;20857;47.808;12.482;2023-07-13T06:20:41;1999.90;;;999.90;;
34645;SDS011;20857;47.808;12.482;2023-07-13T06:23:07;1999.90;;;999.90;;
34645;SDS011;20857;47.808;12.482;2023-07-13T06:25:32;1999.90;;;999.90;;
34645;SDS011;20857;47.808;12.482;2023-07-13T06:27:58;1999.90;;;999.90;;
34645;SDS011;20857;47.808;12.482;2023-07-13T06:30:23;1999.90;;;999.90;;
34645;SDS011;20857;47.808;12.482;2023-07-13T06:32:49;1999.90;;;999.90;;
34645;SDS011;20857;47.808;12.482;2023-07-13T06:35:15;1999.90;;;999.90;;
34645;SDS011;20857;47.808;12.482;2023-07-13T06:37:40;1999.90;;;999.90;;
34645;SDS011;20857;47.808;12.482;2023-07-13T06:40:06;1999.90;;;999.90;;
34645;SDS011;20857;47.808;12.482;2023-07-13T06:42:32;1999.90;;;999.90;;
34645;SDS011;20857;47.808;12.482;2023-07-13T06:44:58;1999.90;;;999.90;;
34645;SDS011;20857;47.808;12.482;2023-07-13T06:47:23;1999.90;;;999.90;;
34645;SDS011;20857;47.808;12.482;2023-07-13T06:49:49;1999.90;;;999.90;;
34645;SDS011;20857;47.808;12.482;2023-07-13T06:52:15;1999.90;;;999.90;;
34645;SDS011;20857;47.808;12.482;2023-07-13T06:54:40;1999.90;;;999.90;;
34645;SDS011;20857;47.808;12.482;2023-07-13T06:57:06;1999.90;;;999.90;;
34645;SDS011;20857;47.808;12.482;2023-07-13T06:59:32;1999.90;;;999.90;;
34645;SDS011;20857;47.808;12.482;2023-07-13T07:01:57;1999.90;;;999.90;;
34645;SDS011;20857;47.808;12.482;2023-07-13T07:04:23;1999.90;;;999.90;;
34645;SDS011;20857;47.808;12.482;2023-07-13T07:06:49;1999.90;;;999.90;;
34645;SDS011;20857;47.808;12.482;2023-07-13T07:09:14;1999.90;;;999.90;;
34645;SDS011;20857;47.808;12.482;2023-07-13T07:11:41;1999.90;;;999.90;;
34645;SDS011;20857;47.808;12.482;2023-07-13T07:14:07;1999.90;;;999.90;;
34645;SDS011;20857;47.808;12.482;2023-07-13T07:16:33;1999.90;;;999.90;;
34645;SDS011;20857;47.808;12.482;2023-07-13T07:18:59;1999.90;;;999.90;;
34645;SDS011;20857;47.808;12.482;2023-07-13T07:21:24;1999.90;;;999.90;;
34645;SDS011;20857;47.808;12.482;2023-07-13T07:23:51;1999.90;;;999.90;;
34645;SDS011;20857;47.808;12.482;2023-07-13T07:26:17;1999.90;;;999.90;;
34645;SDS011;20857;47.808;12.482;2023-07-13T07:28:42;1999.90;;;999.90;;
34645;SDS011;20857;47.808;12.482;2023-07-13T07:31:08;1999.90;;;999.90;;
34645;SDS011;20857;47.808;12.482;2023-07-13T07:33:34;1999.90;;;999.90;;
34645;SDS011;20857;47.808;12.482;2023-07-13T07:36:00;1999.90;;;999.90;;
34645;SDS011;20857;47.808;12.482;2023-07-13T07:38:26;1999.90;;;999.90;;
34645;SDS011;20857;47.808;12.482;2023-07-13T07:40:52;1999.90;;;999.90;;
34645;SDS011;20857;47.808;12.482;2023-07-13T07:43:17;1999.90;;;999.90;;
34645;SDS011;20857;47.808;12.482;2023-07-13T07:45:44;1999.90;;;999.90;;
34645;SDS011;20857;47.808;12.482;2023-07-13T07:48:10;1999.90;;;999.90;;
34645;SDS011;20857;47.808;12.482;2023-07-13T07:50:36;1999.90;;;999.90;;
34645;SDS011;20857;47.808;12.482;2023-07-13T07:53:02;1999.90;;;999.90;;
34645;SDS011;20857;47.808;12.482;2023-07-13T07:55:28;1999.90;;;999.90;;
34645;SDS011;20857;47.808;12.482;2023-07-13T07:57:54;1999.90;;;999.90;;
34645;SDS011;20857;47.808;12.482;2023-07-13T08:00:20;1999.90;;;999.90;;
34645;SDS011;20857;47.808;12.482;2023-07-13T08:02:46;1999.90;;;999.90;;
34645;SDS011;20857;47.808;12.482;2023-07-13T08:05:12;1999.90;;;999.90;;
34645;SDS011;20857;47.808;12.482;2023-07-13T08:07:37;1999.90;;;999.90;;
34645;SDS011;20857;47.808;12.482;2023-07-13T08:10:04;1999.90;;;999.90;;
34645;SDS011;20857;47.808;12.482;2023-07-13T08:12:33;1999.90;;;999.90;;
34645;SDS011;20857;47.808;12.482;2023-07-13T08:14:59;1999.90;;;999.90;;
34645;SDS011;20857;47.808;12.482;2023-07-13T08:17:26;1999.90;;;999.90;;
34645;SDS011;20857;47.808;12.482;2023-07-13T08:19:51;1999.90;;;999.90;;
34645;SDS011;20857;47.808;12.482;2023-07-13T08:22:17;1999.90;;;999.90;;
34645;SDS011;20857;47.808;12.482;2023-07-13T08:24:43;1999.90;;;999.90;;
34645;SDS011;20857;47.808;12.482;2023-07-13T08:27:09;1999.90;;;999.90;;
34645;SDS011;20857;47.808;12.482;2023-07-13T08:29:36;1999.90;;;999.90;;
34645;SDS011;20857;47.808;12.482;2023-07-13T08:32:02;1999.90;;;999.90;;
34645;SDS011;20857;47.808;12.482;2023-07-13T08:34:28;1999.90;;;999.90;;
34645;SDS011;20857;47.808;12.482;2023-07-13T08:36:53;1999.90;;;999.90;;
34645;SDS011;20857;47.808;12.482;2023-07-13T08:39:19;1999.90;;;999.90;;
34645;SDS011;20857;47.808;12.482;2023-07-13T08:41:46;1999.90;;;999.90;;
34645;SDS011;20857;47.808;12.482;2023-07-13T08:44:19;1999.90;;;999.90;;
34645;SDS011;20857;47.808;12.482;2023-07-13T08:46:52;1999.90;;;999.90;;
34645;SDS011;20857;47.808;12.482;2023-07-13T08:49:21;1999.90;;;999.90;;
34645;SDS011;20857;47.808;12.482;2023-07-13T08:54:30;1999.90;;;999.90;;
34645;SDS011;20857;47.808;12.482;2023-07-13T08:57:08;1999.90;;;999.90;;
34645;SDS011;20857;47.808;12.482;2023-07-13T08:59:40;1999.90;;;999.90;;
34645;SDS011;20857;47.808;12.482;2023-07-13T09:10:46;1999.90;;;999.90;;
34645;SDS011;20857;47.808;12.482;2023-07-13T09:16:02;1999.90;;;999.90;;
34645;SDS011;20857;47.808;12.482;2023-07-13T09:18:35;1999.90;;;999.90;;
34645;SDS011;20857;47.808;12.482;2023-07-13T09:21:04;1999.90;;;999.90;;
34645;SDS011;20857;47.808;12.482;2023-07-13T09:23:35;1999.90;;;999.90;;
34645;SDS011;20857;47.808;12.482;2023-07-13T09:26:23;1999.90;;;999.90;;
34645;SDS011;20857;47.808;12.482;2023-07-13T09:28:53;1999.90;;;999.90;;
34645;SDS011;20857;47.808;12.482;2023-07-13T09:31:39;1999.90;;;999.90;;
34645;SDS011;20857;47.808;12.482;2023-07-13T09:34:10;1999.90;;;999.90;;
34645;SDS011;20857;47.808;12.482;2023-07-13T09:36:37;1999.90;;;999.90;;
34645;SDS011;20857;47.808;12.482;2023-07-13T09:41:59;1999.90;;;999.90;;
34645;SDS011;20857;47.808;12.482;2023-07-13T09:46:58;1999.90;;;999.90;;
34645;SDS011;20857;47.808;12.482;2023-07-13T09:49:25;1999.90;;;999.90;;
34645;SDS011;20857;47.808;12.482;2023-07-13T09:52:14;1999.90;;;999.90;;
34645;SDS011;20857;47.808;12.482;2023-07-13T09:54:43;1999.90;;;999.90;;
34645;SDS011;20857;47.808;12.482;2023-07-13T09:57:14;1999.90;;;999.90;;
34645;SDS011;20857;47.808;12.482;2023-07-13T09:59:46;1999.90;;;999.90;;
34645;SDS011;20857;47.808;12.482;2023-07-13T10:05:00;1999.90;;;999.90;;
34645;SDS011;20857;47.808;12.482;2023-07-13T10:07:30;1999.90;;;999.90;;
34645;SDS011;20857;47.808;12.482;2023-07-13T10:10:01;1999.90;;;999.90;;
34645;SDS011;20857;47.808;12.482;2023-07-13T10:12:28;1999.90;;;999.90;;
34645;SDS011;20857;47.808;12.482;2023-07-13T10:15:00;1999.90;;;999.90;;
34645;SDS011;20857;47.808;12.482;2023-07-13T10:17:29;1999.90;;;999.90;;
34645;SDS011;20857;47.808;12.482;2023-07-13T10:20:01;1999.90;;;999.90;;
34645;SDS011;20857;47.808;12.482;2023-07-13T10:22:33;1999.90;;;999.90;;
34645;SDS011;20857;47.808;12.482;2023-07-13T10:25:16;1999.90;;;999.90;;
34645;SDS011;20857;47.808;12.482;2023-07-13T10:27:47;1999.90;;;999.90;;
34645;SDS011;20857;47.808;12.482;2023-07-13T10:30:34;1999.90;;;999.90;;
34645;SDS011;20857;47.808;12.482;2023-07-13T10:33:04;1999.90;;;999.90;;
34645;SDS011;20857;47.808;12.482;2023-07-13T10:35:36;1999.90;;;999.90;;
34645;SDS011;20857;47.808;12.482;2023-07-13T10:38:07;1999.90;;;999.90;;
34645;SDS011;20857;47.808;12.482;2023-07-13T10:40:39;1999.90;;;999.90;;
34645;SDS011;20857;47.808;12.482;2023-07-13T10:43:29;1999.90;;;999.90;;
34645;SDS011;20857;47.808;12.482;2023-07-13T10:46:04;1999.90;;;999.90;;
34645;SDS011;20857;47.808;12.482;2023-07-13T10:48:32;1999.90;;;999.90;;
34645;SDS011;20857;47.808;12.482;2023-07-13T10:51:01;1999.90;;;999.90;;
34645;SDS011;20857;47.808;12.482;2023-07-13T10:53:31;1999.90;;;999.90;;
34645;SDS011;20857;47.808;12.482;2023-07-13T10:56:00;1999.90;;;999.90;;
34645;SDS011;20857;47.808;12.482;2023-07-13T10:58:31;1999.90;;;999.90;;
34645;SDS011;20857;47.808;12.482;2023-07-13T11:01:04;1999.90;;;999.90;;
34645;SDS011;20857;47.808;12.482;2023-07-13T11:11:45;1999.90;;;999.90;;
34645;SDS011;20857;47.808;12.482;2023-07-13T11:14:04;1999.90;;;999.90;;
34645;SDS011;20857;47.808;12.482;2023-07-13T11:16:50;1999.90;;;999.90;;
34645;SDS011;20857;47.808;12.482;2023-07-13T11:24:56;1999.90;;;999.90;;
34645;SDS011;20857;47.808;12.482;2023-07-13T11:30:14;1999.90;;;999.90;;
34645;SDS011;20857;47.808;12.482;2023-07-13T11:32:46;1999.90;;;999.90;;
34645;SDS011;20857;47.808;12.482;2023-07-13T11:35:39;1999.90;;;999.90;;
34645;SDS011;20857;47.808;12.482;2023-07-13T11:38:21;1999.90;;;999.90;;
34645;SDS011;20857;47.808;12.482;2023-07-13T11:41:06;1999.90;;;999.90;;
34645;SDS011;20857;47.808;12.482;2023-07-13T11:43:40;1999.90;;;999.90;;
34645;SDS011;20857;47.808;12.482;2023-07-13T11:46:18;1999.90;;;999.90;;
34645;SDS011;20857;47.808;12.482;2023-07-13T11:48:45;1999.90;;;999.90;;
34645;SDS011;20857;47.808;12.482;2023-07-13T11:51:15;1999.90;;;999.90;;
34645;SDS011;20857;47.808;12.482;2023-07-13T11:53:53;1999.90;;;999.90;;
34645;SDS011;20857;47.808;12.482;2023-07-13T11:56:22;1999.90;;;999.90;;
34645;SDS011;20857;47.808;12.482;2023-07-13T11:58:50;1999.90;;;999.90;;
34645;SDS011;20857;47.808;12.482;2023-07-13T12:01:26;1999.90;;;999.90;;
34645;SDS011;20857;47.808;12.482;2023-07-13T12:03:57;1999.90;;;999.90;;
34645;SDS011;20857;47.808;12.482;2023-07-13T12:06:32;1999.90;;;999.90;;
34645;SDS011;20857;47.808;12.482;2023-07-13T12:09:02;1999.90;;;999.90;;
34645;SDS011;20857;47.808;12.482;2023-07-13T12:11:37;1999.90;;;999.90;;
34645;SDS011;20857;47.808;12.482;2023-07-13T12:14:05;1999.90;;;999.90;;
34645;SDS011;20857;47.808;12.482;2023-07-13T12:16:34;1999.90;;;999.90;;
34645;SDS011;20857;47.808;12.482;2023-07-13T12:19:00;1999.90;;;999.90;;
34645;SDS011;20857;47.808;12.482;2023-07-13T12:21:29;1999.90;;;999.90;;
34645;SDS011;20857;47.808;12.482;2023-07-13T12:24:03;1999.90;;;999.90;;
34645;SDS011;20857;47.808;12.482;2023-07-13T12:26:30;1999.90;;;999.90;;
34645;SDS011;20857;47.808;12.482;2023-07-13T12:28:57;1999.90;;;999.90;;
34645;SDS011;20857;47.808;12.482;2023-07-13T12:34:02;1999.90;;;999.90;;
34645;SDS011;20857;47.808;12.482;2023-07-13T12:36:49;1999.90;;;999.90;;
34645;SDS011;20857;47.808;12.482;2023-07-13T12:39:21;1999.90;;;999.90;;
34645;SDS011;20857;47.808;12.482;2023-07-13T12:41:49;1999.90;;;999.90;;
34645;SDS011;20857;47.808;12.482;2023-07-13T12:44:18;1999.90;;;999.90;;
34645;SDS011;20857;47.808;12.482;2023-07-13T12:47:04;1999.90;;;999.90;;
34645;SDS011;20857;47.808;12.482;2023-07-13T12:49:39;1999.90;;;999.90;;
34645;SDS011;20857;47.808;12.482;2023-07-13T12:52:12;1999.90;;;999.90;;
34645;SDS011;20857;47.808;12.482;2023-07-13T12:54:55;1999.90;;;999.90;;
34645;SDS011;20857;47.808;12.482;2023-07-13T12:57:23;1999.90;;;999.90;;
34645;SDS011;20857;47.808;12.482;2023-07-13T12:59:51;1999.90;;;999.90;;
34645;SDS011;20857;47.808;12.482;2023-07-13T13:02:25;1999.90;;;999.90;;
34645;SDS011;20857;47.808;12.482;2023-07-13T13:04:55;1999.90;;;999.90;;
34645;SDS011;20857;47.808;12.482;2023-07-13T13:07:22;360.52;;;338.70;;
34645;SDS011;20857;47.808;12.482;2023-07-13T13:09:48;507.52;;;470.90;;
34645;SDS011;20857;47.808;12.482;2023-07-13T13:12:14;551.55;;;511.65;;
34645;SDS011;20857;47.808;12.482;2023-07-13T13:14:40;542.97;;;498.90;;
34645;SDS011;20857;47.808;12.482;2023-07-13T13:17:12;923.38;;;613.38;;
34645;SDS011;20857;47.808;12.482;2023-07-13T13:19:52;873.53;;;777.38;;
34645;SDS011;20857;47.808;12.482;2023-07-13T13:22:19;1363.47;;;733.22;;
34645;SDS011;20857;47.808;12.482;2023-07-13T13:24:45;526.63;;;466.00;;
34645;SDS011;20857;47.808;12.482;2023-07-13T13:27:15;982.22;;;680.88;;
34645;SDS011;20857;47.808;12.482;2023-07-13T13:29:43;1081.35;;;742.20;;
34645;SDS011;20857;47.808;12.482;2023-07-13T13:32:13;1532.18;;;669.63;;
34645;SDS011;20857;47.808;12.482;2023-07-13T13:34:40;1863.70;;;957.83;;
34645;SDS011;20857;47.808;12.482;2023-07-13T13:37:20;1629.60;;;750.88;;
34645;SDS011;20857;47.808;12.482;2023-07-13T13:39:47;1999.90;;;999.90;;
34645;SDS011;20857;47.808;12.482;2023-07-13T13:42:13;1999.90;;;999.90;;
34645;SDS011;20857;47.808;12.482;2023-07-13T13:44:39;1274.32;;;862.35;;
34645;SDS011;20857;47.808;12.482;2023-07-13T13:47:19;1356.78;;;695.97;;
34645;SDS011;20857;47.808;12.482;2023-07-13T13:49:54;1025.50;;;441.30;;
34645;SDS011;20857;47.808;12.482;2023-07-13T13:52:20;1564.47;;;776.85;;
34645;SDS011;20857;47.808;12.482;2023-07-13T13:54:45;1325.22;;;757.75;;
34645;SDS011;20857;47.808;12.482;2023-07-13T13:57:11;713.47;;;636.60;;
34645;SDS011;20857;47.808;12.482;2023-07-13T13:59:37;1253.78;;;883.08;;
34645;SDS011;20857;47.808;12.482;2023-07-13T14:02:11;1324.07;;;833.22;;
34645;SDS011;20857;47.808;12.482;2023-07-13T14:04:59;1999.90;;;999.90;;
34645;SDS011;20857;47.808;12.482;2023-07-13T14:07:30;1999.90;;;999.90;;
34645;SDS011;20857;47.808;12.482;2023-07-13T14:09:56;1999.90;;;999.90;;
34645;SDS011;20857;47.808;12.482;2023-07-13T14:12:27;821.17;;;699.83;;
34645;SDS011;20857;47.808;12.482;2023-07-13T14:14:54;1364.47;;;707.38;;
34645;SDS011;20857;47.808;12.482;2023-07-13T14:17:25;1208.60;;;838.00;;
34645;SDS011;20857;47.808;12.482;2023-07-13T14:19:52;1133.35;;;713.67;;
34645;SDS011;20857;47.808;12.482;2023-07-13T14:22:25;730.10;;;652.35;;
34645;SDS011;20857;47.808;12.482;2023-07-13T14:24:54;1487.32;;;841.00;;
34645;SDS011;20857;47.808;12.482;2023-07-13T14:27:20;1364.32;;;730.20;;